Masonhall, Tennessee
Current Conditions -  °F | °C
As of 3:15 AM on Friday 19 Dec 2014 (Local Time) from KUCY Reporting Station
Overcast Overcast  
Wind Chill: 26°   Ceiling: 4400
Heat Index: 34°   Visibility: 10mi
Dew Point: 30°   Wind: 9mph
Humidity: 87%   Direction: 40°NE
Pressure: 30.23"   Gusts: NA
Location:  36.1738°N, 89.0436°W
Report Text: KUCY 190915Z AUTO 04008KT 10SM OVC044 01/M01 A3023 RMK
Loading
Personal Weather Stations






























Interactive Weather Map New forecast layout! Learn more

10-Day Weather Forecast

Advertisements
Track Severe Weather on mobile